Mc Connell Air Force Base
KIAB : now visible

Airfield :











YOU CAN JOIN US ON...

 
LOGIN :

Register | Disclaimer

   EN    FR    IT 

 









Legend :    VFR   Marginal VFR   IFR   Intensive IFR   Very Intensive IFR
Visi :
Ceiling :
>= 8 km
>= 3000ft
5 to 8 km
1000 to 3000 ft
1500m to 5 km
500 to 1000 ft
800 to 1500m
200 to 500 ft
< 800m
< 200 ft
Symbols :   Thunderstorms  Fog  Heavy snow  Heavy precipitations  Wind > 20 kt






- Airport Elevation : 1371 ft
- IATA code : IAB


KIAB - Mc Connell Air Force Base

CURRENT METAR :
  • 280455Z AUTO 11005KT 10SM CLR 22/12 A3007 RMK AO2 SLP175 T02190119 $

EXPIRED METARs :
  • 280355Z AUTO 08006KT 10SM CLR 23/11 A3006 RMK AO2 SLP170 T02280112 $
  • 280255Z AUTO 07007KT 10SM CLR 24/11 A3004 RMK AO2 SLP164 T02420108 52016 $
  • 280155Z AUTO 08005KT 10SM CLR 26/12 A3002 RMK AO2 VIS 1 5/8 RWY19 SLP158 T02550116 $
  • 280055Z AUTO 07006KT 10SM CLR 27/11 A3001 RMK AO2 SLP154 T02700106 $

TAF AMD TAF KIAB
Valid from the 27 at 12:00 until the 28 at 08:00 UTC


271224Z 2712/2808 33009KT 9999 SKC QNH2973INS
BECMG 2715/2716 35012KT 9999 SKC QNH2998INS
BECMG 2800/2801 VRB06KT 9999 SCT100 QNH3001INS TX28/2721Z TN16/2712Z LAST NO AMDS AFT 2712 NEXT 2803
KZKC FIR / North America



MET'MAP, your aeronautical weather chart ! - Copyright ORBIFLY December 2007 - Disclaimer

ORBIFLY MET'MAP TEAM :

Programming & Development : Alexandra Zaïnal
Original concept : Baudouin d'Aumeries
Technical & hardware support : Manuel Goepfert
Assistance : Marc-Olivier Méhu




SOURCES & CREDITS :

   NOAA       Earth
Advisory